sensor_id;sensor_type;location;lat;lon;timestamp;P1;durP1;ratioP1;P2;durP2;ratioP2
30850;SDS011;17567;48.382;9.102;2022-08-30T00:03:32;14.57;;;9.13;;
30850;SDS011;17567;48.382;9.102;2022-08-30T00:08:35;10.17;;;8.70;;
30850;SDS011;17567;48.382;9.102;2022-08-30T00:13:38;9.80;;;8.80;;
30850;SDS011;17567;48.382;9.102;2022-08-30T00:18:41;9.73;;;8.73;;
30850;SDS011;17567;48.382;9.102;2022-08-30T00:23:42;9.30;;;8.43;;
30850;SDS011;17567;48.382;9.102;2022-08-30T00:28:44;10.37;;;8.90;;
30850;SDS011;17567;48.382;9.102;2022-08-30T00:33:44;9.23;;;8.23;;
30850;SDS011;17567;48.382;9.102;2022-08-30T00:38:45;9.13;;;8.23;;
30850;SDS011;17567;48.382;9.102;2022-08-30T00:43:46;16.47;;;9.40;;
30850;SDS011;17567;48.382;9.102;2022-08-30T00:48:47;10.37;;;9.30;;
30850;SDS011;17567;48.382;9.102;2022-08-30T00:53:51;11.73;;;9.97;;
30850;SDS011;17567;48.382;9.102;2022-08-30T00:58:56;12.17;;;10.90;;
30850;SDS011;17567;48.382;9.102;2022-08-30T01:03:59;20.57;;;14.37;;
30850;SDS011;17567;48.382;9.102;2022-08-30T01:09:01;31.77;;;19.30;;
30850;SDS011;17567;48.382;9.102;2022-08-30T01:14:03;27.00;;;17.70;;
30850;SDS011;17567;48.382;9.102;2022-08-30T01:19:07;22.60;;;16.50;;
30850;SDS011;17567;48.382;9.102;2022-08-30T01:24:40;19.70;;;14.57;;
30850;SDS011;17567;48.382;9.102;2022-08-30T01:29:41;19.50;;;15.77;;
30850;SDS011;17567;48.382;9.102;2022-08-30T01:34:44;16.73;;;13.80;;
30850;SDS011;17567;48.382;9.102;2022-08-30T01:39:48;13.73;;;10.57;;
30850;SDS011;17567;48.382;9.102;2022-08-30T01:44:49;12.83;;;10.47;;
30850;SDS011;17567;48.382;9.102;2022-08-30T01:49:51;15.80;;;11.17;;
30850;SDS011;17567;48.382;9.102;2022-08-30T01:54:52;12.43;;;11.00;;
30850;SDS011;17567;48.382;9.102;2022-08-30T01:59:53;11.37;;;10.17;;
30850;SDS011;17567;48.382;9.102;2022-08-30T02:04:55;13.87;;;11.30;;
30850;SDS011;17567;48.382;9.102;2022-08-30T02:09:56;12.23;;;11.03;;
30850;SDS011;17567;48.382;9.102;2022-08-30T02:14:57;12.13;;;10.83;;
30850;SDS011;17567;48.382;9.102;2022-08-30T02:19:58;15.00;;;10.97;;
30850;SDS011;17567;48.382;9.102;2022-08-30T02:24:58;15.57;;;10.90;;
30850;SDS011;17567;48.382;9.102;2022-08-30T02:30:00;11.07;;;8.53;;
30850;SDS011;17567;48.382;9.102;2022-08-30T02:35:01;9.30;;;8.40;;
30850;SDS011;17567;48.382;9.102;2022-08-30T02:40:02;11.90;;;10.70;;
30850;SDS011;17567;48.382;9.102;2022-08-30T02:45:04;11.43;;;8.63;;
30850;SDS011;17567;48.382;9.102;2022-08-30T02:50:06;11.93;;;10.50;;
30850;SDS011;17567;48.382;9.102;2022-08-30T02:55:09;11.43;;;9.00;;
30850;SDS011;17567;48.382;9.102;2022-08-30T03:00:12;10.73;;;9.63;;
30850;SDS011;17567;48.382;9.102;2022-08-30T03:05:16;9.73;;;8.33;;
30850;SDS011;17567;48.382;9.102;2022-08-30T03:10:17;10.90;;;9.00;;
30850;SDS011;17567;48.382;9.102;2022-08-30T03:15:18;9.87;;;8.97;;
30850;SDS011;17567;48.382;9.102;2022-08-30T03:20:21;9.97;;;8.90;;
30850;SDS011;17567;48.382;9.102;2022-08-30T03:25:22;11.07;;;8.97;;
30850;SDS011;17567;48.382;9.102;2022-08-30T03:30:23;16.23;;;9.10;;
30850;SDS011;17567;48.382;9.102;2022-08-30T03:35:24;9.83;;;8.90;;
30850;SDS011;17567;48.382;9.102;2022-08-30T03:40:25;10.17;;;8.67;;
30850;SDS011;17567;48.382;9.102;2022-08-30T03:45:26;10.57;;;9.50;;
30850;SDS011;17567;48.382;9.102;2022-08-30T03:50:28;10.97;;;9.87;;
30850;SDS011;17567;48.382;9.102;2022-08-30T03:55:29;10.47;;;9.43;;
30850;SDS011;17567;48.382;9.102;2022-08-30T04:00:30;13.27;;;10.37;;
30850;SDS011;17567;48.382;9.102;2022-08-30T04:05:31;11.80;;;10.00;;
30850;SDS011;17567;48.382;9.102;2022-08-30T04:10:32;13.43;;;10.13;;
30850;SDS011;17567;48.382;9.102;2022-08-30T04:15:34;13.10;;;9.90;;
30850;SDS011;17567;48.382;9.102;2022-08-30T04:20:35;10.40;;;9.40;;
30850;SDS011;17567;48.382;9.102;2022-08-30T04:25:37;10.10;;;9.07;;
30850;SDS011;17567;48.382;9.102;2022-08-30T04:30:42;14.53;;;10.67;;
30850;SDS011;17567;48.382;9.102;2022-08-30T04:35:45;10.97;;;9.87;;
30850;SDS011;17567;48.382;9.102;2022-08-30T04:40:47;8.90;;;8.20;;
30850;SDS011;17567;48.382;9.102;2022-08-30T04:45:48;12.33;;;9.37;;
30850;SDS011;17567;48.382;9.102;2022-08-30T04:50:51;11.00;;;9.73;;
30850;SDS011;17567;48.382;9.102;2022-08-30T04:55:52;9.47;;;8.40;;
30850;SDS011;17567;48.382;9.102;2022-08-30T05:00:52;10.70;;;9.70;;
30850;SDS011;17567;48.382;9.102;2022-08-30T05:05:53;11.50;;;9.37;;
30850;SDS011;17567;48.382;9.102;2022-08-30T05:10:54;18.97;;;11.40;;
30850;SDS011;17567;48.382;9.102;2022-08-30T05:15:55;13.27;;;10.40;;
30850;SDS011;17567;48.382;9.102;2022-08-30T05:21:06;11.20;;;9.43;;
30850;SDS011;17567;48.382;9.102;2022-08-30T05:26:14;12.17;;;10.30;;
30850;SDS011;17567;48.382;9.102;2022-08-30T05:31:19;11.00;;;9.97;;
30850;SDS011;17567;48.382;9.102;2022-08-30T05:36:23;11.97;;;9.60;;
30850;SDS011;17567;48.382;9.102;2022-08-30T05:41:25;14.17;;;10.70;;
30850;SDS011;17567;48.382;9.102;2022-08-30T05:46:27;16.27;;;12.47;;
30850;SDS011;17567;48.382;9.102;2022-08-30T05:51:32;17.17;;;11.83;;
30850;SDS011;17567;48.382;9.102;2022-08-30T05:56:35;11.13;;;9.97;;
30850;SDS011;17567;48.382;9.102;2022-08-30T06:01:39;11.53;;;10.33;;
30850;SDS011;17567;48.382;9.102;2022-08-30T06:06:42;13.20;;;11.57;;
30850;SDS011;17567;48.382;9.102;2022-08-30T06:11:43;18.83;;;12.77;;
30850;SDS011;17567;48.382;9.102;2022-08-30T06:16:47;14.80;;;11.10;;
30850;SDS011;17567;48.382;9.102;2022-08-30T06:21:49;18.63;;;12.80;;
30850;SDS011;17567;48.382;9.102;2022-08-30T06:26:50;12.60;;;11.33;;
30850;SDS011;17567;48.382;9.102;2022-08-30T06:31:51;15.70;;;11.30;;
30850;SDS011;17567;48.382;9.102;2022-08-30T06:36:52;13.13;;;11.53;;
30850;SDS011;17567;48.382;9.102;2022-08-30T06:41:53;15.07;;;11.53;;
30850;SDS011;17567;48.382;9.102;2022-08-30T06:46:54;13.53;;;12.13;;
30850;SDS011;17567;48.382;9.102;2022-08-30T06:51:55;12.40;;;10.87;;
30850;SDS011;17567;48.382;9.102;2022-08-30T06:56:58;12.70;;;11.37;;
30850;SDS011;17567;48.382;9.102;2022-08-30T07:01:59;14.43;;;11.67;;
30850;SDS011;17567;48.382;9.102;2022-08-30T07:07:00;14.40;;;11.30;;
30850;SDS011;17567;48.382;9.102;2022-08-30T07:12:03;15.23;;;11.17;;
30850;SDS011;17567;48.382;9.102;2022-08-30T07:17:06;10.03;;;9.03;;
30850;SDS011;17567;48.382;9.102;2022-08-30T07:22:26;10.67;;;9.53;;
30850;SDS011;17567;48.382;9.102;2022-08-30T07:27:28;9.40;;;8.50;;
30850;SDS011;17567;48.382;9.102;2022-08-30T07:32:29;13.97;;;8.50;;
30850;SDS011;17567;48.382;9.102;2022-08-30T07:37:30;9.97;;;7.40;;
30850;SDS011;17567;48.382;9.102;2022-08-30T07:42:31;10.23;;;8.37;;
30850;SDS011;17567;48.382;9.102;2022-08-30T07:47:32;8.60;;;7.70;;
30850;SDS011;17567;48.382;9.102;2022-08-30T07:52:33;12.53;;;7.70;;
30850;SDS011;17567;48.382;9.102;2022-08-30T07:57:33;7.40;;;6.70;;
30850;SDS011;17567;48.382;9.102;2022-08-30T08:02:34;8.23;;;7.40;;
30850;SDS011;17567;48.382;9.102;2022-08-30T08:07:36;11.17;;;8.13;;
30850;SDS011;17567;48.382;9.102;2022-08-30T08:12:38;11.40;;;9.57;;
30850;SDS011;17567;48.382;9.102;2022-08-30T08:17:39;11.87;;;9.27;;
30850;SDS011;17567;48.382;9.102;2022-08-30T08:22:40;11.87;;;9.60;;
30850;SDS011;17567;48.382;9.102;2022-08-30T08:27:41;13.57;;;9.83;;
30850;SDS011;17567;48.382;9.102;2022-08-30T08:32:42;19.63;;;9.70;;
30850;SDS011;17567;48.382;9.102;2022-08-30T08:37:43;13.80;;;9.90;;
30850;SDS011;17567;48.382;9.102;2022-08-30T08:53:42;9.70;;;6.97;;
30850;SDS011;17567;48.382;9.102;2022-08-30T08:58:48;8.37;;;6.00;;
30850;SDS011;17567;48.382;9.102;2022-08-30T09:03:51;5.93;;;5.43;;
30850;SDS011;17567;48.382;9.102;2022-08-30T09:08:54;5.30;;;4.90;;
30850;SDS011;17567;48.382;9.102;2022-08-30T09:13:56;6.50;;;4.87;;
30850;SDS011;17567;48.382;9.102;2022-08-30T09:18:57;6.07;;;5.10;;
30850;SDS011;17567;48.382;9.102;2022-08-30T09:23:58;6.22;;;5.13;;
30850;SDS011;17567;48.382;9.102;2022-08-30T09:29:04;5.32;;;4.80;;
30850;SDS011;17567;48.382;9.102;2022-08-30T09:34:16;5.50;;;5.00;;
30850;SDS011;17567;48.382;9.102;2022-08-30T09:39:25;4.95;;;4.38;;
30850;SDS011;17567;48.382;9.102;2022-08-30T09:44:32;5.75;;;4.53;;
30850;SDS011;17567;48.382;9.102;2022-08-30T09:49:38;5.75;;;4.53;;
30850;SDS011;17567;48.382;9.102;2022-08-30T10:00:04;4.82;;;4.43;;
30850;SDS011;17567;48.382;9.102;2022-08-30T10:10:19;5.35;;;4.28;;
30850;SDS011;17567;48.382;9.102;2022-08-30T10:15:47;5.10;;;4.03;;
30850;SDS011;17567;48.382;9.102;2022-08-30T10:25:56;4.82;;;4.00;;
30850;SDS011;17567;48.382;9.102;2022-08-30T10:31:02;5.13;;;3.88;;
30850;SDS011;17567;48.382;9.102;2022-08-30T10:36:09;4.03;;;3.63;;
30850;SDS011;17567;48.382;9.102;2022-08-30T10:41:21;3.97;;;3.58;;
30850;SDS011;17567;48.382;9.102;2022-08-30T10:56:59;3.88;;;3.65;;
30850;SDS011;17567;48.382;9.102;2022-08-30T11:07:41;4.03;;;3.63;;
30850;SDS011;17567;48.382;9.102;2022-08-30T11:17:59;4.70;;;3.50;;
30850;SDS011;17567;48.382;9.102;2022-08-30T11:43:48;4.18;;;3.35;;
30850;SDS011;17567;48.382;9.102;2022-08-30T11:54:52;3.72;;;3.42;;
30850;SDS011;17567;48.382;9.102;2022-08-30T12:00:01;3.95;;;3.63;;
30850;SDS011;17567;48.382;9.102;2022-08-30T12:06:06;3.88;;;3.58;;
30850;SDS011;17567;48.382;9.102;2022-08-30T12:15:59;3.88;;;3.58;;
30850;SDS011;17567;48.382;9.102;2022-08-30T12:31:24;3.75;;;3.38;;
30850;SDS011;17567;48.382;9.102;2022-08-30T12:36:31;3.92;;;3.63;;
30850;SDS011;17567;48.382;9.102;2022-08-30T12:41:40;4.22;;;3.88;;
30850;SDS011;17567;48.382;9.102;2022-08-30T12:46:44;4.18;;;3.85;;
30850;SDS011;17567;48.382;9.102;2022-08-30T12:51:48;4.22;;;3.92;;
30850;SDS011;17567;48.382;9.102;2022-08-30T12:56:54;4.43;;;3.88;;
30850;SDS011;17567;48.382;9.102;2022-08-30T13:02:04;4.40;;;3.78;;
30850;SDS011;17567;48.382;9.102;2022-08-30T13:07:07;4.38;;;3.67;;
30850;SDS011;17567;48.382;9.102;2022-08-30T13:22:28;4.00;;;3.70;;
30850;SDS011;17567;48.382;9.102;2022-08-30T13:27:30;3.53;;;3.30;;
30850;SDS011;17567;48.382;9.102;2022-08-30T13:32:32;6.40;;;3.67;;
30850;SDS011;17567;48.382;9.102;2022-08-30T13:37:36;4.18;;;3.75;;
30850;SDS011;17567;48.382;9.102;2022-08-30T13:42:41;7.03;;;3.75;;
30850;SDS011;17567;48.382;9.102;2022-08-30T13:47:42;3.63;;;3.28;;
30850;SDS011;17567;48.382;9.102;2022-08-30T13:52:45;5.45;;;3.80;;
30850;SDS011;17567;48.382;9.102;2022-08-30T13:57:46;5.65;;;3.78;;
30850;SDS011;17567;48.382;9.102;2022-08-30T14:02:47;4.07;;;3.78;;
30850;SDS011;17567;48.382;9.102;2022-08-30T14:07:49;3.83;;;3.53;;
30850;SDS011;17567;48.382;9.102;2022-08-30T14:12:50;5.22;;;3.45;;
30850;SDS011;17567;48.382;9.102;2022-08-30T14:17:51;4.03;;;3.60;;
30850;SDS011;17567;48.382;9.102;2022-08-30T14:22:51;4.40;;;3.70;;
30850;SDS011;17567;48.382;9.102;2022-08-30T14:27:55;4.88;;;3.63;;
30850;SDS011;17567;48.382;9.102;2022-08-30T14:32:56;3.75;;;3.45;;
30850;SDS011;17567;48.382;9.102;2022-08-30T14:37:57;6.65;;;3.50;;
30850;SDS011;17567;48.382;9.102;2022-08-30T14:42:58;4.07;;;3.75;;
30850;SDS011;17567;48.382;9.102;2022-08-30T14:47:59;4.07;;;3.45;;
30850;SDS011;17567;48.382;9.102;2022-08-30T14:53:04;3.90;;;3.60;;
30850;SDS011;17567;48.382;9.102;2022-08-30T14:58:05;4.60;;;3.92;;
30850;SDS011;17567;48.382;9.102;2022-08-30T15:03:08;4.80;;;3.67;;
30850;SDS011;17567;48.382;9.102;2022-08-30T15:08:11;3.97;;;3.67;;
30850;SDS011;17567;48.382;9.102;2022-08-30T15:13:12;6.13;;;3.80;;
30850;SDS011;17567;48.382;9.102;2022-08-30T15:18:13;4.68;;;3.80;;
30850;SDS011;17567;48.382;9.102;2022-08-30T15:23:14;4.30;;;4.00;;
30850;SDS011;17567;48.382;9.102;2022-08-30T15:28:16;4.20;;;3.80;;
30850;SDS011;17567;48.382;9.102;2022-08-30T15:33:17;3.80;;;3.53;;
30850;SDS011;17567;48.382;9.102;2022-08-30T15:38:18;4.63;;;4.22;;
30850;SDS011;17567;48.382;9.102;2022-08-30T15:43:19;4.28;;;3.88;;
30850;SDS011;17567;48.382;9.102;2022-08-30T15:48:21;4.07;;;3.78;;
30850;SDS011;17567;48.382;9.102;2022-08-30T15:53:22;4.68;;;3.40;;
30850;SDS011;17567;48.382;9.102;2022-08-30T15:58:23;6.13;;;4.00;;
30850;SDS011;17567;48.382;9.102;2022-08-30T16:03:25;5.50;;;3.72;;
30850;SDS011;17567;48.382;9.102;2022-08-30T16:08:26;4.10;;;3.78;;
30850;SDS011;17567;48.382;9.102;2022-08-30T16:13:27;4.30;;;4.00;;
30850;SDS011;17567;48.382;9.102;2022-08-30T16:18:29;4.30;;;4.00;;
30850;SDS011;17567;48.382;9.102;2022-08-30T16:23:30;5.63;;;4.43;;
30850;SDS011;17567;48.382;9.102;2022-08-30T16:28:32;4.40;;;4.00;;
30850;SDS011;17567;48.382;9.102;2022-08-30T16:33:34;4.57;;;4.15;;
30850;SDS011;17567;48.382;9.102;2022-08-30T16:38:36;3.95;;;3.65;;
30850;SDS011;17567;48.382;9.102;2022-08-30T16:43:37;5.20;;;4.45;;
30850;SDS011;17567;48.382;9.102;2022-08-30T16:48:39;4.43;;;4.03;;
30850;SDS011;17567;48.382;9.102;2022-08-30T16:53:41;5.72;;;4.00;;
30850;SDS011;17567;48.382;9.102;2022-08-30T16:58:43;4.72;;;4.35;;
30850;SDS011;17567;48.382;9.102;2022-08-30T17:03:44;7.93;;;4.53;;
30850;SDS011;17567;48.382;9.102;2022-08-30T17:08:46;7.53;;;5.13;;
30850;SDS011;17567;48.382;9.102;2022-08-30T17:13:46;7.65;;;4.45;;
30850;SDS011;17567;48.382;9.102;2022-08-30T17:18:47;7.05;;;4.65;;
30850;SDS011;17567;48.382;9.102;2022-08-30T17:23:48;4.97;;;4.53;;
30850;SDS011;17567;48.382;9.102;2022-08-30T17:28:51;5.05;;;4.10;;
30850;SDS011;17567;48.382;9.102;2022-08-30T17:33:52;5.10;;;4.60;;
30850;SDS011;17567;48.382;9.102;2022-08-30T17:38:55;4.78;;;4.47;;
30850;SDS011;17567;48.382;9.102;2022-08-30T17:43:58;5.53;;;5.03;;
30850;SDS011;17567;48.382;9.102;2022-08-30T17:48:59;5.93;;;4.85;;
30850;SDS011;17567;48.382;9.102;2022-08-30T17:54:00;4.70;;;4.30;;
30850;SDS011;17567;48.382;9.102;2022-08-30T17:59:01;4.85;;;4.45;;
30850;SDS011;17567;48.382;9.102;2022-08-30T18:04:04;8.35;;;6.40;;
30850;SDS011;17567;48.382;9.102;2022-08-30T18:09:05;5.55;;;4.68;;
30850;SDS011;17567;48.382;9.102;2022-08-30T18:14:08;5.32;;;4.75;;
30850;SDS011;17567;48.382;9.102;2022-08-30T18:19:10;7.80;;;5.50;;
30850;SDS011;17567;48.382;9.102;2022-08-30T18:24:10;5.38;;;4.85;;
30850;SDS011;17567;48.382;9.102;2022-08-30T18:29:15;5.85;;;5.25;;
30850;SDS011;17567;48.382;9.102;2022-08-30T18:34:16;6.97;;;5.28;;
30850;SDS011;17567;48.382;9.102;2022-08-30T18:39:17;5.88;;;5.13;;
30850;SDS011;17567;48.382;9.102;2022-08-30T18:44:20;7.18;;;6.47;;
30850;SDS011;17567;48.382;9.102;2022-08-30T18:49:22;6.30;;;5.75;;
30850;SDS011;17567;48.382;9.102;2022-08-30T18:54:24;6.55;;;5.78;;
30850;SDS011;17567;48.382;9.102;2022-08-30T18:59:25;6.10;;;5.50;;
30850;SDS011;17567;48.382;9.102;2022-08-30T19:04:25;6.68;;;5.60;;
30850;SDS011;17567;48.382;9.102;2022-08-30T19:09:26;5.63;;;5.05;;
30850;SDS011;17567;48.382;9.102;2022-08-30T19:14:27;9.38;;;5.90;;
30850;SDS011;17567;48.382;9.102;2022-08-30T19:19:28;7.40;;;5.95;;
30850;SDS011;17567;48.382;9.102;2022-08-30T19:24:29;7.45;;;6.43;;
30850;SDS011;17567;48.382;9.102;2022-08-30T19:29:30;6.43;;;5.93;;
30850;SDS011;17567;48.382;9.102;2022-08-30T19:34:30;5.88;;;5.05;;
30850;SDS011;17567;48.382;9.102;2022-08-30T19:39:31;6.63;;;5.88;;
30850;SDS011;17567;48.382;9.102;2022-08-30T19:44:34;6.28;;;5.78;;
30850;SDS011;17567;48.382;9.102;2022-08-30T19:49:35;6.63;;;6.03;;
30850;SDS011;17567;48.382;9.102;2022-08-30T19:54:36;7.63;;;5.25;;
30850;SDS011;17567;48.382;9.102;2022-08-30T19:59:37;6.25;;;5.65;;
30850;SDS011;17567;48.382;9.102;2022-08-30T20:04:38;5.72;;;5.22;;
30850;SDS011;17567;48.382;9.102;2022-08-30T20:09:39;5.80;;;5.20;;
30850;SDS011;17567;48.382;9.102;2022-08-30T20:14:41;5.40;;;5.00;;
30850;SDS011;17567;48.382;9.102;2022-08-30T20:19:41;6.38;;;5.78;;
30850;SDS011;17567;48.382;9.102;2022-08-30T20:24:42;6.13;;;5.32;;
30850;SDS011;17567;48.382;9.102;2022-08-30T20:29:43;6.40;;;5.55;;
30850;SDS011;17567;48.382;9.102;2022-08-30T20:34:44;5.20;;;4.80;;
30850;SDS011;17567;48.382;9.102;2022-08-30T20:39:47;6.53;;;5.60;;
30850;SDS011;17567;48.382;9.102;2022-08-30T20:44:48;6.88;;;6.00;;
30850;SDS011;17567;48.382;9.102;2022-08-30T20:49:50;5.88;;;5.47;;
30850;SDS011;17567;48.382;9.102;2022-08-30T20:54:50;5.85;;;5.43;;
30850;SDS011;17567;48.382;9.102;2022-08-30T20:59:51;7.77;;;6.20;;
30850;SDS011;17567;48.382;9.102;2022-08-30T21:04:52;6.70;;;6.07;;
30850;SDS011;17567;48.382;9.102;2022-08-30T21:09:53;5.83;;;5.33;;
30850;SDS011;17567;48.382;9.102;2022-08-30T21:14:55;6.50;;;5.80;;
30850;SDS011;17567;48.382;9.102;2022-08-30T21:19:56;7.70;;;5.83;;
30850;SDS011;17567;48.382;9.102;2022-08-30T21:24:57;8.53;;;5.83;;
30850;SDS011;17567;48.382;9.102;2022-08-30T21:29:58;6.80;;;5.60;;
30850;SDS011;17567;48.382;9.102;2022-08-30T21:34:59;6.17;;;5.67;;
30850;SDS011;17567;48.382;9.102;2022-08-30T21:40:18;8.13;;;5.67;;
30850;SDS011;17567;48.382;9.102;2022-08-30T21:45:19;6.23;;;5.63;;
30850;SDS011;17567;48.382;9.102;2022-08-30T21:50:20;6.00;;;5.13;;
30850;SDS011;17567;48.382;9.102;2022-08-30T21:55:21;5.77;;;4.53;;
30850;SDS011;17567;48.382;9.102;2022-08-30T22:00:22;5.40;;;5.00;;
30850;SDS011;17567;48.382;9.102;2022-08-30T22:05:23;7.20;;;5.00;;
30850;SDS011;17567;48.382;9.102;2022-08-30T22:10:24;6.40;;;5.10;;
30850;SDS011;17567;48.382;9.102;2022-08-30T22:15:25;6.90;;;4.70;;
30850;SDS011;17567;48.382;9.102;2022-08-30T22:20:26;4.93;;;4.43;;
30850;SDS011;17567;48.382;9.102;2022-08-30T22:25:26;7.33;;;5.13;;
30850;SDS011;17567;48.382;9.102;2022-08-30T22:30:27;8.40;;;4.53;;
30850;SDS011;17567;48.382;9.102;2022-08-30T22:35:28;4.67;;;4.37;;
30850;SDS011;17567;48.382;9.102;2022-08-30T22:40:29;7.17;;;4.50;;
30850;SDS011;17567;48.382;9.102;2022-08-30T22:45:30;6.57;;;4.67;;
30850;SDS011;17567;48.382;9.102;2022-08-30T22:50:31;7.63;;;4.10;;
30850;SDS011;17567;48.382;9.102;2022-08-30T22:55:33;5.73;;;4.63;;
30850;SDS011;17567;48.382;9.102;2022-08-30T23:00:38;4.70;;;4.30;;
30850;SDS011;17567;48.382;9.102;2022-08-30T23:05:39;6.23;;;5.00;;
30850;SDS011;17567;48.382;9.102;2022-08-30T23:10:40;4.63;;;4.23;;
30850;SDS011;17567;48.382;9.102;2022-08-30T23:15:43;6.23;;;4.30;;
30850;SDS011;17567;48.382;9.102;2022-08-30T23:20:44;7.23;;;4.43;;
30850;SDS011;17567;48.382;9.102;2022-08-30T23:25:45;5.17;;;4.67;;
30850;SDS011;17567;48.382;9.102;2022-08-30T23:36:28;5.17;;;4.67;;
30850;SDS011;17567;48.382;9.102;2022-08-30T23:41:48;5.37;;;4.67;;
30850;SDS011;17567;48.382;9.102;2022-08-30T23:47:07;5.70;;;4.07;;
30850;SDS011;17567;48.382;9.102;2022-08-30T23:52:27;6.20;;;4.20;;
30850;SDS011;17567;48.382;9.102;2022-08-30T23:57:46;6.07;;;4.67;;
